Time;durP1;ratioP1;P1;durP2;ratioP2;P2;SDS_P1;SDS_P2;PMS_P1;PMS_P2;Temp;Humidity;BMP_temperature;BMP_pressure;BME280_temperature;BME280_humidity;BME280_pressure;Samples;Min_cycle;Max_cycle;Signal;HPM_P1;HPM_P2
2021/08/26 00:00:33;;;;;;;3.95;2.25;;;;;;;;;;5032884;28;20025;-43
2021/08/26 00:05:46;;;;;;;4.75;2.00;;;;;;;;;;5032620;28;20025;-43
2021/08/26 00:08:12;;;;;;;3.72;2.15;;;;;;;;;;5032448;28;20025;-43
2021/08/26 00:10:39;;;;;;;5.78;2.53;;;;;;;;;;5032470;28;20040;-43
2021/08/26 00:13:06;;;;;;;5.70;2.15;;;;;;;;;;5032897;28;20122;-42
2021/08/26 00:15:33;;;;;;;4.20;2.10;;;;;;;;;;5032695;28;20027;-43
2021/08/26 00:17:59;;;;;;;6.10;2.03;;;;;;;;;;5032463;28;20112;-44
2021/08/26 00:20:25;;;;;;;4.80;2.22;;;;;;;;;;5032510;28;20543;-42
2021/08/26 00:22:51;;;;;;;4.43;2.03;;;;;;;;;;5032327;28;20017;-43
2021/08/26 00:25:16;;;;;;;4.85;2.28;;;;;;;;;;5032453;28;20567;-43
2021/08/26 00:27:42;;;;;;;5.15;2.55;;;;;;;;;;5032192;28;20030;-43
2021/08/26 00:30:07;;;;;;;6.63;2.42;;;;;;;;;;5032597;28;20080;-43
2021/08/26 00:32:33;;;;;;;4.78;2.10;;;;;;;;;;5032588;28;20013;-43
2021/08/26 00:34:58;;;;;;;3.67;2.20;;;;;;;;;;5032591;28;20423;-43
2021/08/26 00:37:23;;;;;;;4.35;2.22;;;;;;;;;;5032300;28;20021;-43
2021/08/26 00:39:49;;;;;;;5.65;2.22;;;;;;;;;;5032469;28;20088;-43
2021/08/26 00:42:15;;;;;;;4.05;2.50;;;;;;;;;;5032553;28;20029;-43
2021/08/26 00:44:40;;;;;;;3.47;2.13;;;;;;;;;;5032020;28;20041;-43
2021/08/26 00:47:06;;;;;;;3.78;2.25;;;;;;;;;;5032393;28;20472;-43
2021/08/26 00:49:31;;;;;;;4.38;2.55;;;;;;;;;;5032186;28;20033;-43
2021/08/26 00:51:57;;;;;;;5.55;2.30;;;;;;;;;;5032100;28;20032;-43
2021/08/26 00:54:23;;;;;;;3.58;2.20;;;;;;;;;;5032428;28;20033;-43
2021/08/26 00:56:48;;;;;;;4.72;2.10;;;;;;;;;;5032057;28;20017;-43
2021/08/26 00:59:14;;;;;;;3.58;2.22;;;;;;;;;;5032093;28;20029;-43
2021/08/26 01:01:51;;;;;;;3.22;2.13;;;;;;;;;;5032230;28;20367;-43
2021/08/26 01:04:25;;;;;;;5.63;2.25;;;;;;;;;;5034248;28;20041;-48
2021/08/26 01:06:56;;;;;;;4.15;2.22;;;;;;;;;;5035987;28;20029;-43
2021/08/26 01:09:25;;;;;;;5.47;2.53;;;;;;;;;;5035906;28;20029;-43
2021/08/26 01:11:51;;;;;;;6.45;3.20;;;;;;;;;;5035784;28;20491;-43
2021/08/26 01:14:17;;;;;;;5.25;2.53;;;;;;;;;;5035776;28;20029;-43
2021/08/26 01:16:44;;;;;;;6.55;2.67;;;;;;;;;;5035912;28;20024;-43
2021/08/26 01:19:12;;;;;;;5.30;3.03;;;;;;;;;;5035703;28;20026;-43
2021/08/26 01:21:37;;;;;;;5.13;2.22;;;;;;;;;;5035624;28;20017;-43
2021/08/26 01:24:05;;;;;;;4.85;2.50;;;;;;;;;;5035884;28;20037;-43
2021/08/26 01:26:33;;;;;;;5.80;2.95;;;;;;;;;;5035280;28;20018;-43
2021/08/26 01:29:00;;;;;;;5.40;2.30;;;;;;;;;;5035542;28;20033;-43
2021/08/26 01:31:25;;;;;;;5.97;2.53;;;;;;;;;;5035498;28;20009;-43
2021/08/26 01:33:51;;;;;;;4.85;2.40;;;;;;;;;;5035391;28;20029;-43
2021/08/26 01:36:17;;;;;;;4.85;2.20;;;;;;;;;;5035633;28;20018;-43
2021/08/26 01:38:50;;;;;;;4.28;2.67;;;;;;;;;;5035581;28;20384;-43
2021/08/26 01:41:16;;;;;;;7.00;2.88;;;;;;;;;;5035577;28;20065;-43
2021/08/26 01:43:47;;;;;;;6.03;2.38;;;;;;;;;;5035158;28;20508;-43
2021/08/26 01:46:14;;;;;;;4.35;2.03;;;;;;;;;;5035461;28;20033;-43
2021/08/26 01:48:39;;;;;;;8.55;2.67;;;;;;;;;;5035233;28;20090;-43
2021/08/26 01:51:04;;;;;;;3.58;1.80;;;;;;;;;;5035242;28;20036;-43
2021/08/26 01:53:30;;;;;;;3.05;1.92;;;;;;;;;;5035299;28;20387;-43
2021/08/26 01:55:55;;;;;;;3.75;2.05;;;;;;;;;;5035022;28;20076;-43
2021/08/26 01:58:20;;;;;;;4.53;2.47;;;;;;;;;;5035054;28;20021;-43
2021/08/26 02:00:46;;;;;;;4.43;2.22;;;;;;;;;;5035211;28;20487;-43
2021/08/26 02:03:11;;;;;;;3.72;2.05;;;;;;;;;;5034881;28;20017;-43
2021/08/26 02:05:37;;;;;;;6.45;2.20;;;;;;;;;;5035129;28;20039;-43
2021/08/26 02:08:02;;;;;;;5.57;2.53;;;;;;;;;;5034754;28;20034;-43
2021/08/26 02:10:28;;;;;;;3.08;2.28;;;;;;;;;;5034659;28;20484;-43
2021/08/26 02:12:53;;;;;;;5.35;1.90;;;;;;;;;;5035009;28;20068;-43
2021/08/26 02:15:19;;;;;;;4.47;2.75;;;;;;;;;;5034647;28;20543;-43
2021/08/26 02:17:45;;;;;;;3.83;2.22;;;;;;;;;;5034507;28;20079;-43
2021/08/26 02:20:10;;;;;;;9.43;2.85;;;;;;;;;;5034547;28;20057;-43
2021/08/26 02:22:36;;;;;;;6.20;2.95;;;;;;;;;;5033586;28;20018;-42
2021/08/26 02:25:02;;;;;;;3.13;1.98;;;;;;;;;;5034428;28;20028;-42
2021/08/26 02:27:28;;;;;;;6.07;2.28;;;;;;;;;;5049678;28;20081;-44
2021/08/26 02:29:53;;;;;;;5.72;3.13;;;;;;;;;;5034699;28;20100;-43
2021/08/26 02:32:19;;;;;;;5.63;2.15;;;;;;;;;;5034381;28;20488;-43
2021/08/26 02:34:44;;;;;;;4.07;2.10;;;;;;;;;;5033122;28;20025;-43
2021/08/26 02:37:09;;;;;;;3.50;2.20;;;;;;;;;;5034506;28;20101;-43
2021/08/26 02:39:35;;;;;;;4.75;2.38;;;;;;;;;;5034175;28;20496;-43
2021/08/26 02:42:01;;;;;;;4.40;2.35;;;;;;;;;;5034287;28;20494;-43
2021/08/26 02:44:26;;;;;;;4.35;2.22;;;;;;;;;;5033950;28;20049;-42
2021/08/26 02:46:51;;;;;;;3.25;2.33;;;;;;;;;;5032686;28;20069;-43
2021/08/26 02:49:17;;;;;;;4.72;2.40;;;;;;;;;;5034127;28;20045;-43
2021/08/26 02:51:42;;;;;;;3.55;2.20;;;;;;;;;;5034212;28;20021;-43
2021/08/26 02:54:08;;;;;;;4.43;2.22;;;;;;;;;;5033939;28;20061;-43
2021/08/26 02:56:33;;;;;;;5.57;2.33;;;;;;;;;;5034045;28;20025;-43
2021/08/26 02:58:58;;;;;;;3.53;1.98;;;;;;;;;;5034159;28;20057;-43
2021/08/26 03:01:24;;;;;;;5.40;2.35;;;;;;;;;;5033874;28;20026;-43
2021/08/26 03:03:49;;;;;;;5.75;2.80;;;;;;;;;;5032551;28;20107;-42
2021/08/26 03:06:15;;;;;;;8.75;2.40;;;;;;;;;;5033995;28;20403;-43
2021/08/26 03:08:40;;;;;;;4.40;2.03;;;;;;;;;;5033759;28;20040;-43
2021/08/26 03:11:08;;;;;;;4.45;2.42;;;;;;;;;;5033976;28;20463;-43
2021/08/26 03:13:33;;;;;;;6.85;2.45;;;;;;;;;;5033753;28;20079;-43
2021/08/26 03:15:58;;;;;;;2.58;1.90;;;;;;;;;;5033441;28;20407;-43
2021/08/26 03:18:24;;;;;;;3.92;2.03;;;;;;;;;;5033579;28;20076;-43
2021/08/26 03:20:49;;;;;;;5.15;2.38;;;;;;;;;;5032347;28;20033;-43
2021/08/26 03:23:15;;;;;;;4.22;2.10;;;;;;;;;;5033396;28;20029;-43
2021/08/26 03:25:40;;;;;;;5.35;2.53;;;;;;;;;;5033199;28;20021;-43
2021/08/26 03:28:05;;;;;;;3.72;2.42;;;;;;;;;;5033103;28;20095;-42
2021/08/26 03:30:31;;;;;;;6.53;3.30;;;;;;;;;;5033541;28;20352;-42
2021/08/26 03:32:56;;;;;;;5.35;3.15;;;;;;;;;;5033492;28;20605;-43
2021/08/26 03:35:21;;;;;;;3.78;1.73;;;;;;;;;;5033408;28;20017;-43
2021/08/26 03:37:47;;;;;;;3.78;2.38;;;;;;;;;;5033357;28;20064;-43
2021/08/26 03:40:12;;;;;;;4.90;2.58;;;;;;;;;;5033321;28;20033;-43
2021/08/26 03:42:38;;;;;;;3.97;2.13;;;;;;;;;;5033071;28;20120;-43
2021/08/26 03:45:04;;;;;;;4.30;2.50;;;;;;;;;;5033042;28;20041;-43
2021/08/26 03:47:29;;;;;;;5.82;2.72;;;;;;;;;;5032789;28;20053;-43
2021/08/26 03:49:55;;;;;;;5.40;2.47;;;;;;;;;;5033163;28;20075;-43
2021/08/26 03:52:20;;;;;;;5.40;2.42;;;;;;;;;;5032929;28;20112;-43
2021/08/26 03:54:45;;;;;;;9.60;3.05;;;;;;;;;;5032799;28;20100;-43
2021/08/26 03:57:11;;;;;;;4.82;2.38;;;;;;;;;;5033051;28;20080;-42
2021/08/26 03:59:36;;;;;;;3.22;2.08;;;;;;;;;;5032777;28;20048;-43
2021/08/26 04:02:02;;;;;;;3.83;2.08;;;;;;;;;;5032765;28;20025;-43
2021/08/26 04:04:27;;;;;;;5.00;2.47;;;;;;;;;;5032670;28;20024;-43
2021/08/26 04:06:52;;;;;;;3.95;2.10;;;;;;;;;;5032771;28;20468;-42
2021/08/26 04:09:18;;;;;;;4.53;3.17;;;;;;;;;;5032661;28;20017;-43
2021/08/26 04:11:43;;;;;;;6.80;2.08;;;;;;;;;;5032758;28;20017;-43
2021/08/26 04:14:08;;;;;;;4.85;2.85;;;;;;;;;;5032670;28;20044;-43
2021/08/26 04:16:35;;;;;;;5.03;2.10;;;;;;;;;;5032481;28;20063;-43
2021/08/26 04:19:00;;;;;;;3.67;2.00;;;;;;;;;;5032434;28;20021;-43
2021/08/26 04:21:26;;;;;;;7.00;3.05;;;;;;;;;;5032819;28;20026;-43
2021/08/26 04:23:51;;;;;;;6.43;2.38;;;;;;;;;;5031247;28;20060;-43
2021/08/26 04:26:17;;;;;;;4.22;2.13;;;;;;;;;;5032591;28;20029;-42
2021/08/26 04:28:42;;;;;;;9.70;2.38;;;;;;;;;;5032303;28;20060;-42
2021/08/26 04:31:08;;;;;;;5.43;2.75;;;;;;;;;;5032679;28;20480;-43
2021/08/26 04:33:33;;;;;;;4.05;2.10;;;;;;;;;;5032504;28;20025;-43
2021/08/26 04:35:58;;;;;;;5.07;2.45;;;;;;;;;;5032226;28;20412;-45
2021/08/26 04:38:24;;;;;;;4.55;2.30;;;;;;;;;;5031793;28;20021;-42
2021/08/26 04:40:50;;;;;;;2.60;1.63;;;;;;;;;;5036354;28;20025;-42
2021/08/26 04:43:16;;;;;;;5.07;2.72;;;;;;;;;;5036200;28;20045;-43
2021/08/26 04:45:42;;;;;;;4.50;2.70;;;;;;;;;;5035843;28;20466;-43
2021/08/26 04:48:08;;;;;;;8.25;3.17;;;;;;;;;;5036206;28;20476;-42
2021/08/26 04:50:33;;;;;;;3.72;2.00;;;;;;;;;;5035268;28;20021;-43
2021/08/26 04:52:58;;;;;;;4.75;2.40;;;;;;;;;;5036312;28;20412;-43
2021/08/26 04:55:24;;;;;;;6.97;3.05;;;;;;;;;;5036229;28;20022;-43
2021/08/26 04:57:49;;;;;;;5.78;2.65;;;;;;;;;;5036282;28;20112;-43
2021/08/26 05:00:15;;;;;;;5.45;2.50;;;;;;;;;;5036085;28;20116;-43
2021/08/26 05:02:40;;;;;;;7.32;3.15;;;;;;;;;;5036199;28;20034;-42
2021/08/26 05:05:06;;;;;;;6.05;2.25;;;;;;;;;;5036319;28;20031;-43
2021/08/26 05:07:31;;;;;;;9.88;2.40;;;;;;;;;;5035785;28;20029;-42
2021/08/26 05:09:57;;;;;;;3.78;2.20;;;;;;;;;;5034688;28;20264;-43
2021/08/26 05:12:22;;;;;;;3.42;2.22;;;;;;;;;;5036187;28;20022;-43
2021/08/26 05:14:49;;;;;;;5.60;2.47;;;;;;;;;;5035652;28;20387;-42
2021/08/26 05:17:15;;;;;;;3.90;2.03;;;;;;;;;;5036178;28;20096;-42
2021/08/26 05:19:40;;;;;;;2.90;2.10;;;;;;;;;;5036116;28;20193;-42
2021/08/26 05:22:05;;;;;;;5.93;2.70;;;;;;;;;;5035723;28;20087;-42
2021/08/26 05:24:32;;;;;;;3.15;2.00;;;;;;;;;;5035419;28;20060;-43
2021/08/26 05:26:57;;;;;;;8.18;2.88;;;;;;;;;;5035834;28;20037;-42
2021/08/26 05:29:22;;;;;;;4.05;2.45;;;;;;;;;;5035633;28;20494;-43
2021/08/26 05:31:48;;;;;;;6.43;2.72;;;;;;;;;;5034209;28;20014;-42
2021/08/26 05:34:14;;;;;;;4.05;2.38;;;;;;;;;;5035719;28;20121;-42
2021/08/26 05:36:39;;;;;;;4.57;2.40;;;;;;;;;;5035256;28;20071;-42
2021/08/26 05:39:05;;;;;;;3.75;2.47;;;;;;;;;;5035418;28;20037;-42
2021/08/26 05:41:30;;;;;;;5.97;2.78;;;;;;;;;;5035402;28;20018;-43
2021/08/26 05:43:55;;;;;;;7.72;2.60;;;;;;;;;;5034659;28;20453;-43
2021/08/26 05:46:21;;;;;;;7.95;2.92;;;;;;;;;;5035493;28;20036;-44
2021/08/26 05:48:46;;;;;;;4.75;2.58;;;;;;;;;;5035232;28;20529;-43
2021/08/26 05:51:12;;;;;;;3.70;2.15;;;;;;;;;;5034787;28;20017;-43
2021/08/26 05:53:37;;;;;;;4.78;2.47;;;;;;;;;;5035006;28;20037;-42
2021/08/26 05:56:02;;;;;;;6.20;2.85;;;;;;;;;;5035132;28;20060;-41
2021/08/26 05:58:28;;;;;;;3.42;2.25;;;;;;;;;;5034996;28;20379;-42
2021/08/26 06:00:53;;;;;;;3.60;2.40;;;;;;;;;;5035191;28;20009;-42
2021/08/26 06:03:19;;;;;;;3.22;2.17;;;;;;;;;;5035029;28;20495;-42
2021/08/26 06:05:44;;;;;;;4.90;2.55;;;;;;;;;;5034705;28;20468;-43
2021/08/26 06:08:10;;;;;;;5.68;2.55;;;;;;;;;;5034853;28;20084;-42
2021/08/26 06:10:37;;;;;;;3.65;2.20;;;;;;;;;;5035049;28;20097;-43
2021/08/26 06:13:02;;;;;;;3.08;2.13;;;;;;;;;;5035001;28;20037;-43
2021/08/26 06:15:28;;;;;;;5.55;3.15;;;;;;;;;;5034692;28;20022;-43
2021/08/26 06:17:53;;;;;;;3.88;2.50;;;;;;;;;;5034912;28;20074;-42
2021/08/26 06:20:19;;;;;;;5.57;2.85;;;;;;;;;;5034867;28;20022;-42
2021/08/26 06:22:44;;;;;;;3.72;2.00;;;;;;;;;;5034788;28;20045;-42
2021/08/26 06:25:10;;;;;;;5.28;2.40;;;;;;;;;;5034912;28;20013;-42
2021/08/26 06:27:36;;;;;;;6.28;2.90;;;;;;;;;;5034533;28;20045;-42
2021/08/26 06:30:01;;;;;;;3.88;2.42;;;;;;;;;;5034504;28;20542;-43
2021/08/26 06:32:27;;;;;;;4.38;2.28;;;;;;;;;;5034720;28;20368;-43
2021/08/26 06:34:52;;;;;;;6.38;2.58;;;;;;;;;;5034230;28;20540;-42
2021/08/26 06:37:18;;;;;;;3.05;2.15;;;;;;;;;;5034280;28;20370;-44
2021/08/26 06:39:43;;;;;;;4.72;2.60;;;;;;;;;;5034215;28;20017;-44
2021/08/26 06:42:09;;;;;;;3.60;2.28;;;;;;;;;;5034459;28;20120;-43
2021/08/26 06:44:34;;;;;;;3.60;2.50;;;;;;;;;;5033975;28;20045;-43
2021/08/26 06:47:00;;;;;;;2.97;1.92;;;;;;;;;;5034034;28;20033;-43
2021/08/26 06:49:25;;;;;;;7.60;2.95;;;;;;;;;;5034399;28;20538;-43
2021/08/26 06:51:51;;;;;;;5.35;2.67;;;;;;;;;;5033925;28;20032;-43
2021/08/26 06:54:16;;;;;;;3.75;2.40;;;;;;;;;;5033999;28;20025;-43
2021/08/26 06:56:42;;;;;;;4.70;2.40;;;;;;;;;;5034041;28;20369;-43
2021/08/26 06:59:07;;;;;;;3.92;2.47;;;;;;;;;;5033997;28;20029;-42
2021/08/26 07:01:33;;;;;;;5.13;2.70;;;;;;;;;;5032922;28;20025;-43
2021/08/26 07:03:58;;;;;;;5.57;2.95;;;;;;;;;;5033830;28;20021;-43
2021/08/26 07:06:25;;;;;;;4.22;2.33;;;;;;;;;;5033765;28;20025;-43
2021/08/26 07:08:51;;;;;;;2.33;1.58;;;;;;;;;;5033784;28;20376;-43
2021/08/26 07:11:16;;;;;;;3.78;2.00;;;;;;;;;;5033743;28;20038;-43
2021/08/26 07:13:42;;;;;;;2.90;1.88;;;;;;;;;;5033529;28;20022;-43
2021/08/26 07:16:07;;;;;;;3.28;2.20;;;;;;;;;;5032147;28;20037;-43
2021/08/26 07:18:32;;;;;;;6.65;2.50;;;;;;;;;;5033888;28;20025;-43
2021/08/26 07:20:58;;;;;;;4.85;2.35;;;;;;;;;;5033680;28;20493;-43
2021/08/26 07:23:23;;;;;;;2.40;1.70;;;;;;;;;;5033426;28;20026;-43
2021/08/26 07:25:49;;;;;;;4.97;1.80;;;;;;;;;;5033289;28;20055;-42
2021/08/26 07:28:14;;;;;;;3.95;1.77;;;;;;;;;;5033020;28;20029;-42
2021/08/26 07:30:40;;;;;;;4.15;2.33;;;;;;;;;;5033394;28;20021;-43
2021/08/26 07:33:05;;;;;;;6.30;3.22;;;;;;;;;;5033310;28;20081;-43
2021/08/26 07:35:31;;;;;;;4.22;2.58;;;;;;;;;;5033212;28;20112;-43
2021/08/26 07:37:56;;;;;;;3.00;2.20;;;;;;;;;;5033139;28;20106;-44
2021/08/26 07:40:22;;;;;;;3.50;1.80;;;;;;;;;;5033062;28;20034;-43
2021/08/26 07:42:47;;;;;;;5.05;2.33;;;;;;;;;;5032873;28;20021;-44
2021/08/26 07:45:13;;;;;;;2.97;2.15;;;;;;;;;;5033354;28;20034;-43
2021/08/26 07:47:38;;;;;;;3.97;2.20;;;;;;;;;;5033110;28;20511;-43
2021/08/26 07:50:06;;;;;;;4.28;2.10;;;;;;;;;;5033056;28;20045;-43
2021/08/26 07:52:32;;;;;;;3.47;2.15;;;;;;;;;;5032750;28;20032;-43
2021/08/26 07:54:57;;;;;;;6.75;3.00;;;;;;;;;;5033200;28;20075;-43
2021/08/26 07:57:23;;;;;;;4.57;2.60;;;;;;;;;;5032785;28;20037;-43
2021/08/26 07:59:48;;;;;;;3.53;2.25;;;;;;;;;;5032725;28;20025;-43
2021/08/26 08:02:13;;;;;;;4.93;2.28;;;;;;;;;;5033120;28;20135;-48
2021/08/26 08:04:40;;;;;;;3.60;2.10;;;;;;;;;;5031362;28;20052;-43
2021/08/26 08:07:05;;;;;;;5.45;2.63;;;;;;;;;;5032578;28;20025;-43
2021/08/26 08:09:33;;;;;;;3.30;2.10;;;;;;;;;;5032736;28;20029;-43
2021/08/26 08:11:59;;;;;;;6.10;2.75;;;;;;;;;;5032703;28;20036;-43
2021/08/26 08:14:25;;;;;;;3.70;2.42;;;;;;;;;;5032878;28;20072;-43
2021/08/26 08:16:50;;;;;;;4.22;1.98;;;;;;;;;;5032671;28;20049;-43
2021/08/26 08:19:15;;;;;;;5.38;2.60;;;;;;;;;;5032563;28;20480;-43
2021/08/26 08:21:41;;;;;;;4.22;2.65;;;;;;;;;;5032473;28;20025;-43
2021/08/26 08:24:06;;;;;;;4.70;2.28;;;;;;;;;;5032487;28;20391;-43
2021/08/26 08:26:32;;;;;;;8.15;2.65;;;;;;;;;;5032364;28;20167;-43
2021/08/26 08:28:57;;;;;;;3.97;2.45;;;;;;;;;;5032228;28;20142;-43
2021/08/26 08:31:22;;;;;;;4.57;2.13;;;;;;;;;;5032713;28;20018;-43
2021/08/26 08:33:50;;;;;;;5.90;1.58;;;;;;;;;;5032286;28;20037;-43
2021/08/26 08:36:16;;;;;;;10.95;2.38;;;;;;;;;;5032220;28;20026;-43
2021/08/26 08:38:42;;;;;;;4.93;2.47;;;;;;;;;;5032209;28;20029;-43
2021/08/26 08:41:07;;;;;;;7.53;2.20;;;;;;;;;;5032485;28;20029;-43
2021/08/26 08:43:34;;;;;;;4.53;2.30;;;;;;;;;;5032161;28;20124;-42
2021/08/26 08:46:00;;;;;;;5.78;2.78;;;;;;;;;;5032426;28;20118;-43
2021/08/26 08:48:27;;;;;;;3.20;1.85;;;;;;;;;;5032157;28;20038;-43
2021/08/26 08:50:52;;;;;;;5.65;2.25;;;;;;;;;;5032085;28;20021;-43
2021/08/26 08:53:18;;;;;;;3.17;2.33;;;;;;;;;;5032226;28;20041;-43
2021/08/26 08:55:44;;;;;;;3.45;2.17;;;;;;;;;;5031713;28;20456;-43
2021/08/26 08:58:09;;;;;;;4.95;2.33;;;;;;;;;;5032193;28;20034;-43
2021/08/26 09:00:35;;;;;;;3.95;1.95;;;;;;;;;;5032181;28;20017;-43
2021/08/26 09:03:01;;;;;;;3.20;2.00;;;;;;;;;;5031997;28;20029;-42
2021/08/26 09:05:46;;;;;;;3.63;1.67;;;;;;;;;;5032091;28;20037;-43
2021/08/26 09:08:12;;;;;;;4.82;1.80;;;;;;;;;;5031917;28;20095;-43
2021/08/26 09:10:37;;;;;;;4.68;3.15;;;;;;;;;;5031916;28;20025;-43
2021/08/26 09:13:02;;;;;;;4.68;1.98;;;;;;;;;;5032008;28;20104;-43
2021/08/26 09:15:30;;;;;;;3.55;2.13;;;;;;;;;;5032230;28;20025;-43
2021/08/26 09:18:12;;;;;;;2.97;1.80;;;;;;;;;;5031782;28;20136;-43
2021/08/26 09:20:47;;;;;;;3.38;1.73;;;;;;;;;;5030650;28;20029;-43
2021/08/26 09:23:12;;;;;;;3.67;1.83;;;;;;;;;;5032189;28;20021;-43
2021/08/26 09:25:40;;;;;;;4.18;1.85;;;;;;;;;;5034618;28;20470;-43
2021/08/26 09:28:05;;;;;;;2.67;1.75;;;;;;;;;;5035839;28;20037;-43
2021/08/26 09:30:30;;;;;;;6.20;1.85;;;;;;;;;;5035538;28;20036;-43
2021/08/26 09:33:00;;;;;;;4.45;2.17;;;;;;;;;;5035673;28;20072;-43
2021/08/26 09:35:29;;;;;;;2.28;1.63;;;;;;;;;;5035459;28;20083;-43
2021/08/26 09:38:02;;;;;;;6.18;1.90;;;;;;;;;;5035670;28;20033;-43
2021/08/26 09:40:28;;;;;;;5.45;2.03;;;;;;;;;;5035432;28;20112;-43
2021/08/26 09:42:55;;;;;;;4.25;2.10;;;;;;;;;;5035187;28;20037;-43
2021/08/26 09:45:22;;;;;;;3.13;1.55;;;;;;;;;;5035262;28;20061;-43
2021/08/26 09:47:57;;;;;;;4.78;1.70;;;;;;;;;;5035426;28;20045;-43
2021/08/26 09:50:35;;;;;;;4.57;1.67;;;;;;;;;;5035207;28;20029;-43
2021/08/26 09:53:00;;;;;;;5.30;1.95;;;;;;;;;;5035305;28;20395;-42
2021/08/26 09:55:27;;;;;;;3.13;1.58;;;;;;;;;;5033900;28;20108;-43
2021/08/26 09:58:11;;;;;;;3.55;1.85;;;;;;;;;;5035084;28;20065;-43
2021/08/26 10:00:36;;;;;;;3.03;1.88;;;;;;;;;;5034926;28;20041;-43
2021/08/26 10:03:02;;;;;;;3.42;1.65;;;;;;;;;;5050365;28;20021;-42
2021/08/26 10:05:27;;;;;;;4.85;1.95;;;;;;;;;;5034907;28;20253;-43
2021/08/26 10:07:52;;;;;;;4.05;1.80;;;;;;;;;;5033384;28;20108;-43
2021/08/26 10:10:18;;;;;;;2.65;1.63;;;;;;;;;;5034886;28;20037;-43
2021/08/26 10:12:43;;;;;;;1.73;1.13;;;;;;;;;;5034668;28;20036;-43
2021/08/26 10:15:09;;;;;;;3.13;1.25;;;;;;;;;;5034884;28;20029;-43
2021/08/26 10:17:35;;;;;;;3.13;1.42;;;;;;;;;;5035076;28;20444;-43
2021/08/26 10:20:01;;;;;;;4.63;2.05;;;;;;;;;;5034631;28;20117;-43
2021/08/26 10:22:26;;;;;;;4.13;1.65;;;;;;;;;;5034920;28;20018;-42
2021/08/26 10:24:57;;;;;;;2.70;1.35;;;;;;;;;;5034434;28;20034;-43
2021/08/26 10:27:27;;;;;;;3.67;1.70;;;;;;;;;;5034432;28;20105;-42
2021/08/26 10:29:52;;;;;;;3.92;1.80;;;;;;;;;;5034403;28;20033;-42
2021/08/26 10:32:25;;;;;;;3.45;1.77;;;;;;;;;;5034501;28;20040;-43
2021/08/26 10:35:03;;;;;;;2.40;1.50;;;;;;;;;;5034392;28;20044;-43
2021/08/26 10:37:28;;;;;;;4.93;1.70;;;;;;;;;;5033177;28;20045;-42
2021/08/26 10:39:54;;;;;;;3.25;1.30;;;;;;;;;;5034275;28;20021;-42
2021/08/26 10:42:22;;;;;;;3.83;1.73;;;;;;;;;;5034214;28;20033;-42
2021/08/26 10:45:08;;;;;;;2.92;1.35;;;;;;;;;;5034042;28;20056;-43
2021/08/26 10:47:57;;;;;;;2.60;1.45;;;;;;;;;;5034166;28;20045;-43
2021/08/26 10:50:27;;;;;;;3.47;1.55;;;;;;;;;;5034069;28;20465;-43
2021/08/26 10:52:59;;;;;;;3.13;1.60;;;;;;;;;;5034233;28;20030;-44
2021/08/26 10:55:28;;;;;;;3.55;1.83;;;;;;;;;;5034235;28;20052;-43
2021/08/26 10:57:53;;;;;;;2.60;1.42;;;;;;;;;;5034116;28;20033;-42
2021/08/26 11:00:39;;;;;;;3.42;1.77;;;;;;;;;;5033999;28;20392;-42
2021/08/26 11:03:05;;;;;;;2.60;1.35;;;;;;;;;;5033682;28;20037;-44
2021/08/26 11:05:34;;;;;;;2.22;1.20;;;;;;;;;;5033775;28;20027;-43
2021/08/26 11:07:59;;;;;;;6.60;1.50;;;;;;;;;;5033934;28;20502;-42
2021/08/26 11:10:28;;;;;;;3.95;1.58;;;;;;;;;;5033795;28;20021;-43
2021/08/26 11:13:13;;;;;;;2.85;1.65;;;;;;;;;;5033787;28;20384;-43
2021/08/26 11:15:39;;;;;;;3.33;1.88;;;;;;;;;;5033316;28;20057;-43
2021/08/26 11:18:33;;;;;;;3.65;1.55;;;;;;;;;;5033627;28;20167;-43
2021/08/26 11:20:59;;;;;;;3.63;1.60;;;;;;;;;;5027644;28;20041;-43
2021/08/26 11:23:44;;;;;;;3.33;1.52;;;;;;;;;;5033686;28;20031;-43
2021/08/26 11:26:28;;;;;;;3.58;1.50;;;;;;;;;;5033376;28;20554;-43
2021/08/26 11:28:54;;;;;;;4.93;1.88;;;;;;;;;;5033200;28;20064;-43
2021/08/26 11:31:20;;;;;;;2.03;1.58;;;;;;;;;;5033374;28;20452;-43
2021/08/26 11:33:46;;;;;;;4.53;2.25;;;;;;;;;;5033481;28;20502;-43
2021/08/26 11:36:13;;;;;;;2.20;1.55;;;;;;;;;;5033523;28;20100;-43
2021/08/26 11:38:45;;;;;;;2.92;1.73;;;;;;;;;;5033105;28;20037;-43
2021/08/26 11:41:11;;;;;;;4.45;1.83;;;;;;;;;;5033312;28;20026;-43
2021/08/26 11:43:43;;;;;;;4.50;2.25;;;;;;;;;;5032634;28;20403;-43
2021/08/26 11:46:10;;;;;;;1.90;1.30;;;;;;;;;;5032815;28;20032;-42
2021/08/26 11:48:35;;;;;;;2.33;1.45;;;;;;;;;;5032390;28;20042;-43
2021/08/26 11:51:02;;;;;;;3.10;1.83;;;;;;;;;;5032891;28;20025;-43
2021/08/26 11:53:27;;;;;;;5.05;1.73;;;;;;;;;;5032880;28;20452;-43
2021/08/26 11:55:55;;;;;;;4.28;1.70;;;;;;;;;;5032804;28;20033;-43
2021/08/26 11:58:20;;;;;;;3.55;1.50;;;;;;;;;;5033178;28;20021;-43
2021/08/26 12:00:50;;;;;;;3.78;1.65;;;;;;;;;;5033019;28;20029;-43
2021/08/26 12:03:18;;;;;;;3.38;1.70;;;;;;;;;;5033069;28;20465;-43
2021/08/26 12:05:44;;;;;;;2.13;1.30;;;;;;;;;;5032650;28;20457;-42
2021/08/26 12:08:10;;;;;;;2.85;1.67;;;;;;;;;;5032602;28;20027;-43
2021/08/26 12:10:39;;;;;;;2.85;1.65;;;;;;;;;;5032644;28;20381;-43
2021/08/26 12:13:10;;;;;;;4.47;1.60;;;;;;;;;;5032676;28;20104;-43
2021/08/26 12:15:54;;;;;;;3.08;2.10;;;;;;;;;;5032375;28;20030;-43
2021/08/26 12:18:24;;;;;;;3.22;1.50;;;;;;;;;;5032576;28;20124;-43
2021/08/26 12:20:52;;;;;;;4.88;1.75;;;;;;;;;;5032737;28;20061;-43
2021/08/26 12:23:18;;;;;;;2.80;1.58;;;;;;;;;;5047816;28;20083;-43
2021/08/26 12:25:44;;;;;;;2.40;1.65;;;;;;;;;;5032727;28;20140;-44
2021/08/26 12:28:10;;;;;;;3.38;1.45;;;;;;;;;;5032191;28;20480;-43
2021/08/26 12:30:40;;;;;;;2.47;1.98;;;;;;;;;;5032713;28;20018;-43
2021/08/26 12:33:06;;;;;;;6.18;2.05;;;;;;;;;;5031132;28;20033;-43
2021/08/26 12:35:38;;;;;;;4.53;2.40;;;;;;;;;;5031164;28;20020;-43
2021/08/26 12:38:04;;;;;;;3.25;1.38;;;;;;;;;;5032115;28;20384;-43
2021/08/26 12:40:30;;;;;;;2.72;1.70;;;;;;;;;;5031951;28;20029;-43
2021/08/26 12:43:06;;;;;;;2.78;1.52;;;;;;;;;;5032053;28;20037;-43
2021/08/26 12:45:35;;;;;;;3.50;1.80;;;;;;;;;;5032535;28;20397;-43
2021/08/26 12:48:19;;;;;;;2.42;1.70;;;;;;;;;;5032118;28;20030;-43
2021/08/26 12:50:44;;;;;;;5.10;2.08;;;;;;;;;;5032150;28;20025;-43
2021/08/26 12:53:16;;;;;;;3.33;1.90;;;;;;;;;;5032501;28;20120;-43
2021/08/26 12:55:55;;;;;;;3.88;1.95;;;;;;;;;;5032351;28;20030;-43
2021/08/26 12:58:21;;;;;;;3.80;1.75;;;;;;;;;;5032386;28;20052;-43
2021/08/26 13:00:46;;;;;;;3.72;1.50;;;;;;;;;;5035096;28;20527;-43
2021/08/26 13:03:12;;;;;;;2.17;1.50;;;;;;;;;;5036242;28;20103;-43
2021/08/26 13:05:50;;;;;;;5.22;1.90;;;;;;;;;;5035993;28;20044;-43
2021/08/26 13:08:15;;;;;;;3.55;1.77;;;;;;;;;;5036274;28;20041;-43
2021/08/26 13:10:41;;;;;;;2.50;1.65;;;;;;;;;;5036221;28;20448;-43
2021/08/26 13:13:11;;;;;;;5.00;1.67;;;;;;;;;;5035955;28;20475;-43
2021/08/26 13:15:36;;;;;;;2.70;1.63;;;;;;;;;;5035912;28;20083;-43
2021/08/26 13:18:02;;;;;;;3.50;2.17;;;;;;;;;;5035842;28;20018;-43
2021/08/26 13:20:28;;;;;;;3.05;1.60;;;;;;;;;;5036104;28;20423;-43
2021/08/26 13:22:53;;;;;;;2.38;1.60;;;;;;;;;;5035987;28;20026;-42
2021/08/26 13:25:18;;;;;;;5.65;1.58;;;;;;;;;;5035755;28;20426;-42
2021/08/26 13:27:44;;;;;;;2.80;1.50;;;;;;;;;;5035741;28;20057;-43
2021/08/26 13:30:10;;;;;;;3.17;1.75;;;;;;;;;;5035704;28;20353;-42
2021/08/26 13:32:36;;;;;;;4.00;2.10;;;;;;;;;;5035546;28;20468;-43
2021/08/26 13:35:08;;;;;;;2.45;1.27;;;;;;;;;;5035406;28;20033;-43
2021/08/26 13:37:34;;;;;;;2.53;1.73;;;;;;;;;;5035845;28;20034;-43
2021/08/26 13:39:59;;;;;;;2.83;1.77;;;;;;;;;;5035572;28;20341;-43
2021/08/26 13:42:25;;;;;;;3.55;2.00;;;;;;;;;;5035641;28;20030;-43
2021/08/26 13:44:50;;;;;;;2.40;1.40;;;;;;;;;;5035171;28;20068;-43
2021/08/26 13:47:15;;;;;;;1.83;1.20;;;;;;;;;;5035200;28;20453;-43
2021/08/26 13:49:41;;;;;;;2.88;1.50;;;;;;;;;;5035275;28;20032;-43
2021/08/26 13:52:07;;;;;;;3.78;1.80;;;;;;;;;;5035544;28;20033;-43
2021/08/26 13:54:33;;;;;;;2.13;1.45;;;;;;;;;;5035197;28;20477;-43
2021/08/26 13:57:03;;;;;;;8.85;2.40;;;;;;;;;;5035125;28;20026;-43
2021/08/26 13:59:28;;;;;;;4.15;1.70;;;;;;;;;;5035094;28;20444;-43
2021/08/26 14:01:54;;;;;;;1.98;1.38;;;;;;;;;;5035000;28;20380;-43
2021/08/26 14:04:19;;;;;;;4.63;1.48;;;;;;;;;;5035075;28;20021;-45
2021/08/26 14:06:45;;;;;;;2.10;1.10;;;;;;;;;;5034859;28;20483;-43
2021/08/26 14:09:10;;;;;;;2.85;1.90;;;;;;;;;;5035122;28;20033;-43
2021/08/26 14:11:36;;;;;;;6.25;2.10;;;;;;;;;;5034565;28;20134;-43
2021/08/26 14:14:02;;;;;;;1.75;1.00;;;;;;;;;;5034803;28;20017;-43
2021/08/26 14:16:27;;;;;;;4.95;1.60;;;;;;;;;;5034988;28;20029;-43
2021/08/26 14:18:53;;;;;;;3.20;2.03;;;;;;;;;;5033426;28;20397;-43
2021/08/26 14:21:18;;;;;;;5.47;1.88;;;;;;;;;;5034959;28;20112;-43
2021/08/26 14:23:44;;;;;;;4.82;1.38;;;;;;;;;;5033207;28;20021;-43
2021/08/26 14:26:09;;;;;;;5.25;2.45;;;;;;;;;;5034817;28;20026;-43
2021/08/26 14:28:34;;;;;;;2.45;1.33;;;;;;;;;;5042104;28;20025;-43
2021/08/26 14:31:00;;;;;;;2.47;1.85;;;;;;;;;;5014561;28;20491;-42
2021/08/26 14:33:26;;;;;;;2.00;1.48;;;;;;;;;;5014705;28;20025;-43
2021/08/26 14:35:51;;;;;;;3.03;1.70;;;;;;;;;;5014867;28;20065;-42
2021/08/26 14:38:17;;;;;;;2.58;1.92;;;;;;;;;;5014577;28;20018;-43
2021/08/26 14:40:42;;;;;;;2.30;1.17;;;;;;;;;;5014748;28;20453;-42
2021/08/26 14:43:08;;;;;;;2.30;1.90;;;;;;;;;;5014292;28;20553;-43